Time;durP1;ratioP1;P1;durP2;ratioP2;P2;SDS_P1;SDS_P2;PMS_P1;PMS_P2;Temp;Humidity;BMP_temperature;BMP_pressure;BME280_temperature;BME280_humidity;BME280_pressure;Samples;Min_cycle;Max_cycle;Signal;HPM_P1;HPM_P2
2023/07/13 00:02:23;;;;;;;4.47;3.17;;;23.00;90.60;22.60;96407.00;;;;4974114;28;20226;-84
2023/07/13 00:04:50;;;;;;;4.17;2.97;;;23.00;90.60;22.60;96420.00;;;;4972261;28;20655;-84
2023/07/13 00:07:19;;;;;;;3.47;3.17;;;23.00;90.60;22.60;96424.00;;;;4971982;28;20223;-84
2023/07/13 00:09:47;;;;;;;4.00;3.47;;;23.00;90.60;22.60;96428.00;;;;4960111;28;20196;-84
2023/07/13 00:12:29;;;;;;;3.60;3.30;;;23.00;90.70;22.60;96410.00;;;;4974746;28;20235;-84
2023/07/13 00:14:59;;;;;;;3.43;3.13;;;23.00;90.50;22.60;96405.00;;;;4979389;28;20717;-84
2023/07/13 00:17:27;;;;;;;3.83;3.10;;;23.00;90.60;22.60;96404.00;;;;4979387;28;20224;-83
2023/07/13 00:19:55;;;;;;;3.30;3.00;;;23.10;90.70;22.60;96392.00;;;;4977087;28;20232;-84
2023/07/13 00:22:23;;;;;;;7.33;3.47;;;23.10;90.70;22.60;96394.00;;;;4976225;28;20222;-84
2023/07/13 00:24:51;;;;;;;2.80;2.60;;;23.10;90.80;22.70;96395.00;;;;4968765;28;20275;-84
2023/07/13 00:27:19;;;;;;;3.00;2.80;;;23.10;90.80;22.70;96394.00;;;;4975984;28;20225;-84
2023/07/13 00:29:48;;;;;;;3.07;2.70;;;23.10;90.80;22.70;96393.00;;;;4976413;28;20213;-85
2023/07/13 00:32:15;;;;;;;3.40;3.00;;;23.10;90.70;22.70;96405.00;;;;4979495;28;20688;-85
2023/07/13 00:34:43;;;;;;;3.40;3.10;;;23.10;90.70;22.70;96413.00;;;;4983659;28;20197;-84
2023/07/13 00:37:11;;;;;;;3.20;2.97;;;23.10;90.60;22.70;96410.00;;;;4995972;28;20230;-85
2023/07/13 00:39:38;;;;;;;2.80;2.60;;;23.10;90.60;22.70;96412.00;;;;4973580;28;20271;-84
2023/07/13 00:42:06;;;;;;;2.87;2.67;;;23.10;90.70;22.70;96400.00;;;;4982404;28;20217;-82
2023/07/13 00:44:34;;;;;;;3.30;2.60;;;23.10;90.70;22.70;96396.00;;;;4974604;28;20682;-86
2023/07/13 00:47:03;;;;;;;3.17;2.50;;;23.10;91.00;22.70;96408.00;;;;4983640;28;20229;-85
2023/07/13 00:49:34;;;;;;;2.97;2.37;;;23.10;90.70;22.70;96413.00;;;;4987854;28;20198;-84
2023/07/13 00:52:10;;;;;;;3.10;2.53;;;23.10;90.60;22.70;96408.00;;;;4968984;28;20407;-84
2023/07/13 00:54:44;;;;;;;2.77;2.37;;;23.10;90.60;22.70;96415.00;;;;4969193;28;20201;-84
2023/07/13 00:57:17;;;;;;;4.07;2.53;;;23.10;90.70;22.70;96404.00;;;;4956839;28;20225;-84
2023/07/13 00:59:54;;;;;;;2.33;2.23;;;23.10;90.70;22.70;96409.00;;;;4979548;28;20222;-84
2023/07/13 01:02:24;;;;;;;2.37;2.27;;;23.10;90.70;22.70;96418.00;;;;4972187;28;20210;-84
2023/07/13 01:04:52;;;;;;;3.00;2.03;;;23.10;91.00;22.70;96417.00;;;;4976323;28;20266;-83
2023/07/13 01:07:20;;;;;;;2.40;2.20;;;23.10;90.70;22.70;96411.00;;;;4975246;28;20218;-84
2023/07/13 01:09:47;;;;;;;3.43;2.00;;;23.10;90.60;22.70;96414.00;;;;4976670;28;20201;-84
2023/07/13 01:12:14;;;;;;;3.70;2.33;;;23.10;90.60;22.70;96412.00;;;;4975186;28;20652;-84
2023/07/13 01:14:42;;;;;;;4.70;2.10;;;23.10;90.60;22.70;96411.00;;;;4975322;28;20620;-84
2023/07/13 01:17:12;;;;;;;2.50;2.10;;;23.10;90.60;22.70;96399.00;;;;4974956;28;20324;-84
2023/07/13 01:19:44;;;;;;;3.00;2.30;;;23.10;90.50;22.70;96399.00;;;;4972790;28;20202;-85
2023/07/13 01:22:16;;;;;;;2.43;2.00;;;23.10;90.40;22.70;96384.00;;;;4975180;28;20215;-85
2023/07/13 01:24:46;;;;;;;2.00;1.90;;;23.10;90.40;22.70;96391.00;;;;4981413;28;20206;-84
2023/07/13 01:27:18;;;;;;;2.40;2.20;;;23.10;90.50;22.70;96390.00;;;;4979084;28;20219;-84
2023/07/13 01:29:47;;;;;;;4.00;2.50;;;23.10;90.50;22.70;96382.00;;;;4974059;28;20830;-84
2023/07/13 01:32:22;;;;;;;2.20;1.80;;;23.10;90.60;22.70;96381.00;;;;4980482;28;20241;-83
2023/07/13 01:34:50;;;;;;;1.93;1.83;;;23.10;90.70;22.70;96391.00;;;;4972017;28;20290;-84
2023/07/13 01:37:19;;;;;;;2.80;2.00;;;23.10;90.70;22.70;96379.00;;;;4980772;28;20228;-84
2023/07/13 01:39:46;;;;;;;3.63;2.10;;;23.10;90.60;22.70;96374.00;;;;4981712;28;20702;-84
2023/07/13 01:42:14;;;;;;;2.10;1.90;;;23.10;90.60;22.70;96369.00;;;;4988190;28;20255;-83
2023/07/13 01:44:41;;;;;;;2.40;2.20;;;23.10;90.90;22.70;96376.00;;;;4984038;28;20264;-84
2023/07/13 01:47:10;;;;;;;3.27;2.97;;;23.10;90.60;22.70;96374.00;;;;4981286;28;20233;-84
2023/07/13 01:49:38;;;;;;;2.77;2.03;;;23.10;90.60;22.70;96384.00;;;;4984394;28;20210;-84
2023/07/13 01:52:06;;;;;;;2.40;2.20;;;23.10;90.60;22.70;96375.00;;;;4987514;28;20604;-85
2023/07/13 01:54:35;;;;;;;2.33;2.10;;;23.10;90.70;22.70;96384.00;;;;4979555;28;20679;-85
2023/07/13 01:57:03;;;;;;;2.20;1.80;;;23.10;90.60;22.70;96382.00;;;;4981187;28;20218;-84
2023/07/13 01:59:30;;;;;;;2.23;2.13;;;23.10;90.60;22.70;96377.00;;;;4979407;28;20231;-84
2023/07/13 02:01:57;;;;;;;2.47;2.10;;;23.10;90.50;22.70;96377.00;;;;4980402;28;20466;-85
2023/07/13 02:04:24;;;;;;;3.03;2.13;;;23.10;90.50;22.70;96377.00;;;;4986448;28;20610;-84
2023/07/13 02:06:52;;;;;;;2.47;1.97;;;23.10;90.50;22.70;96378.00;;;;4980837;28;20233;-85
2023/07/13 02:09:19;;;;;;;2.63;2.03;;;23.10;90.60;22.70;96384.00;;;;4983845;28;20597;-85
2023/07/13 02:11:48;;;;;;;2.40;2.20;;;23.10;90.60;22.70;96383.00;;;;4975841;28;20212;-85
2023/07/13 02:14:16;;;;;;;2.23;2.03;;;23.10;90.60;22.70;96398.00;;;;4973605;28;20236;-84
2023/07/13 02:16:45;;;;;;;2.50;2.30;;;23.10;90.60;22.70;96395.00;;;;4967338;28;20699;-85
2023/07/13 02:19:12;;;;;;;2.30;2.10;;;23.10;90.60;22.70;96393.00;;;;4973022;28;20211;-85
2023/07/13 02:21:40;;;;;;;2.30;2.10;;;23.10;90.60;22.60;96398.00;;;;4978987;28;20220;-84
2023/07/13 02:24:07;;;;;;;2.20;2.00;;;23.10;90.60;22.60;96399.00;;;;4975782;28;20205;-84
2023/07/13 02:26:35;;;;;;;2.40;2.20;;;23.10;90.50;22.60;96399.00;;;;4973186;28;20226;-85
2023/07/13 02:29:03;;;;;;;3.67;2.23;;;23.10;90.50;22.60;96393.00;;;;4981459;28;20208;-84
2023/07/13 02:31:31;;;;;;;2.30;2.10;;;23.00;90.50;22.60;96391.00;;;;4975852;28;20776;-84
2023/07/13 02:34:05;;;;;;;2.17;2.00;;;23.10;90.60;22.60;96388.00;;;;4973116;28;20729;-85
2023/07/13 02:36:33;;;;;;;2.20;2.10;;;23.10;90.50;22.60;96397.00;;;;4955676;28;20215;-85
2023/07/13 02:39:07;;;;;;;2.83;2.00;;;23.10;90.60;22.60;96396.00;;;;4971643;28;20201;-85
2023/07/13 02:41:34;;;;;;;2.20;2.00;;;23.00;90.60;22.60;96404.00;;;;4972048;28;20225;-85
2023/07/13 02:44:03;;;;;;;2.13;2.00;;;23.10;90.80;22.60;96412.00;;;;4972022;28;20221;-85
2023/07/13 02:46:31;;;;;;;2.27;2.07;;;23.10;90.80;22.60;96406.00;;;;4973094;28;20316;-85
2023/07/13 02:48:58;;;;;;;2.47;2.10;;;23.10;90.80;22.60;96404.00;;;;4973273;28;20291;-85
2023/07/13 02:51:26;;;;;;;3.00;1.80;;;23.10;90.70;22.60;96404.00;;;;4973219;28;20575;-85
2023/07/13 02:53:53;;;;;;;3.37;1.90;;;23.10;90.70;22.60;96398.00;;;;4970696;28;20579;-85
2023/07/13 02:56:24;;;;;;;3.07;2.10;;;23.10;90.80;22.60;96411.00;;;;4978898;28;20221;-85
2023/07/13 02:58:53;;;;;;;1.97;1.80;;;23.10;90.70;22.60;96424.00;;;;4971093;28;20226;-85
2023/07/13 03:01:23;;;;;;;3.27;2.03;;;23.10;90.70;22.60;96427.00;;;;4975890;28;20660;-85
2023/07/13 03:03:51;;;;;;;3.23;2.30;;;23.10;90.90;22.60;96434.00;;;;4969336;28;20294;-85
2023/07/13 03:06:21;;;;;;;2.10;1.90;;;23.10;90.70;22.60;96437.00;;;;4973392;28;20234;-85
2023/07/13 03:08:50;;;;;;;2.37;2.10;;;23.10;90.70;22.60;96432.00;;;;4974361;28;20619;-85
2023/07/13 03:11:21;;;;;;;2.17;1.97;;;23.10;90.60;22.60;96425.00;;;;4966805;28;20656;-86
2023/07/13 03:13:49;;;;;;;2.33;1.90;;;23.10;90.50;22.60;96432.00;;;;4975628;28;20200;-85
2023/07/13 03:16:17;;;;;;;3.00;2.27;;;23.10;90.40;22.60;96431.00;;;;4970964;28;20223;-86
2023/07/13 03:18:47;;;;;;;3.93;2.50;;;23.00;90.70;22.60;96428.00;;;;4968753;28;20199;-86
2023/07/13 03:21:15;;;;;;;3.93;2.10;;;23.00;90.40;22.60;96436.00;;;;4972201;28;20606;-85
2023/07/13 03:23:42;;;;;;;2.77;2.27;;;23.00;90.40;22.60;96441.00;;;;4973162;28;20199;-85
2023/07/13 03:26:15;;;;;;;2.47;2.27;;;23.00;90.40;22.50;96436.00;;;;4972135;28;20223;-85
2023/07/13 03:28:43;;;;;;;2.77;2.57;;;23.00;90.40;22.50;96435.00;;;;4976272;28;20277;-87
2023/07/13 03:31:14;;;;;;;2.40;2.20;;;23.00;90.50;22.50;96439.00;;;;4972728;28;20204;-87
2023/07/13 03:33:41;;;;;;;5.63;2.60;;;23.00;90.60;22.50;96448.00;;;;4967056;28;20246;-85
2023/07/13 03:36:16;;;;;;;2.93;2.30;;;23.00;90.70;22.60;96440.00;;;;4976574;28;20574;-85
2023/07/13 03:38:43;;;;;;;2.90;2.30;;;23.00;90.70;22.50;96442.00;;;;4972837;28;20232;-85
2023/07/13 03:41:10;;;;;;;3.40;2.67;;;23.00;90.80;22.60;96443.00;;;;4977089;28;20309;-85
2023/07/13 03:43:38;;;;;;;3.67;2.80;;;23.00;90.80;22.60;96452.00;;;;4984779;28;20234;-85
2023/07/13 03:46:05;;;;;;;2.93;2.67;;;23.00;90.80;22.60;96456.00;;;;4974131;28;20220;-86
2023/07/13 03:48:32;;;;;;;4.13;3.00;;;23.00;90.80;22.60;96454.00;;;;4975314;28;20212;-85
2023/07/13 03:50:59;;;;;;;3.20;2.77;;;23.00;90.80;22.60;96450.00;;;;4978300;28;20202;-85
2023/07/13 03:53:28;;;;;;;4.67;2.40;;;23.00;90.90;22.60;96450.00;;;;4983640;28;20198;-85
2023/07/13 03:55:55;;;;;;;3.07;2.67;;;23.00;90.80;22.60;96450.00;;;;4975292;28;20226;-86
2023/07/13 03:58:33;;;;;;;4.50;2.97;;;23.00;90.90;22.60;96449.00;;;;4973554;28;20873;-86
2023/07/13 04:01:02;;;;;;;8.23;3.10;;;23.00;90.70;22.60;96455.00;;;;4976292;28;20226;-85
2023/07/13 04:03:32;;;;;;;3.10;2.80;;;23.00;90.80;22.60;96450.00;;;;4975566;28;20206;-85
2023/07/13 04:06:00;;;;;;;3.80;3.00;;;23.10;90.90;22.60;96447.00;;;;4973727;28;20222;-85
2023/07/13 04:08:31;;;;;;;7.00;2.87;;;23.10;90.90;22.60;96451.00;;;;4976341;28;20214;-85
2023/07/13 04:11:00;;;;;;;3.67;2.90;;;23.10;90.80;22.60;96456.00;;;;4974000;28;20210;-85
2023/07/13 04:13:28;;;;;;;6.10;2.83;;;23.00;90.80;22.60;96457.00;;;;4975989;28;20204;-85
2023/07/13 04:15:55;;;;;;;3.47;3.17;;;23.00;90.80;22.60;96459.00;;;;4973924;28;20223;-85
2023/07/13 04:18:23;;;;;;;4.17;2.83;;;23.10;90.80;22.60;96461.00;;;;4977687;28;20209;-88
2023/07/13 04:20:52;;;;;;;4.40;3.20;;;23.00;90.80;22.70;96467.00;;;;4976125;28;20697;-87
2023/07/13 04:23:19;;;;;;;3.73;3.00;;;23.00;90.80;22.70;96462.00;;;;4980900;28;20207;-90
2023/07/13 04:25:52;;;;;;;4.17;2.90;;;23.10;90.90;22.70;96459.00;;;;4977456;28;20302;-88
2023/07/13 04:28:20;;;;;;;3.50;3.30;;;23.10;90.80;22.70;96463.00;;;;4975347;28;20208;-87
2023/07/13 04:30:48;;;;;;;3.47;3.17;;;23.10;90.90;22.70;96471.00;;;;4942844;28;20607;-88
2023/07/13 04:33:16;;;;;;;3.33;2.90;;;23.10;90.70;22.70;96479.00;;;;4976487;28;20579;-87
2023/07/13 04:35:46;;;;;;;3.33;3.03;;;23.10;90.70;22.70;96484.00;;;;4974362;28;20223;-87
2023/07/13 04:38:15;;;;;;;3.10;2.90;;;23.10;90.70;22.70;96477.00;;;;4959977;28;20290;-89
2023/07/13 04:40:46;;;;;;;3.23;2.77;;;23.10;90.70;22.70;96487.00;;;;4975859;28;20204;-87
2023/07/13 04:43:15;;;;;;;3.23;3.03;;;23.10;90.70;22.70;96484.00;;;;4975184;28;20203;-89
2023/07/13 04:45:43;;;;;;;4.60;3.20;;;23.10;90.70;22.70;96488.00;;;;4975567;28;20324;-87
2023/07/13 04:48:10;;;;;;;3.10;2.90;;;23.10;90.80;22.70;96489.00;;;;4974075;28;20208;-89
2023/07/13 04:50:38;;;;;;;3.57;2.77;;;23.10;90.90;22.70;96477.00;;;;4974121;28;20205;-87
2023/07/13 04:53:06;;;;;;;3.27;2.97;;;23.20;90.90;22.80;96489.00;;;;4973951;28;20228;-88
2023/07/13 04:55:33;;;;;;;3.30;3.00;;;23.20;90.90;22.80;96497.00;;;;4977971;28;20292;-88
2023/07/13 04:58:02;;;;;;;5.63;3.50;;;23.20;90.90;22.80;96492.00;;;;4979160;28;20575;-88
2023/07/13 05:00:31;;;;;;;4.00;2.83;;;23.20;90.80;22.80;96498.00;;;;4979021;28;20198;-89
2023/07/13 05:02:59;;;;;;;3.27;3.07;;;23.20;90.70;22.80;96499.00;;;;4945726;28;20226;-88
2023/07/13 05:05:27;;;;;;;2.90;2.70;;;23.20;90.70;22.80;96502.00;;;;4987769;28;20805;-88
2023/07/13 05:07:55;;;;;;;4.40;3.23;;;23.20;90.70;22.80;96498.00;;;;4983035;28;20210;-89
2023/07/13 05:10:23;;;;;;;3.53;2.70;;;23.20;90.70;22.80;96496.00;;;;4975034;28;20218;-87
2023/07/13 05:12:51;;;;;;;3.23;2.93;;;23.20;90.60;22.80;96503.00;;;;4974664;28;20205;-88
2023/07/13 05:15:25;;;;;;;3.37;3.07;;;23.20;90.60;22.80;96512.00;;;;4974287;28;20561;-90
2023/07/13 05:17:53;;;;;;;3.67;2.80;;;23.20;90.70;22.80;96508.00;;;;4975509;28;20197;-89
2023/07/13 05:20:22;;;;;;;3.40;3.10;;;23.20;90.70;22.80;96526.00;;;;4976771;28;20202;-88
2023/07/13 05:22:50;;;;;;;4.97;3.13;;;23.30;90.80;22.80;96525.00;;;;4976807;28;20321;-86
2023/07/13 05:25:17;;;;;;;4.20;3.00;;;23.30;90.80;22.80;96531.00;;;;4973420;28;20925;-88
2023/07/13 05:27:47;;;;;;;5.10;2.77;;;23.30;90.80;22.90;96524.00;;;;4977011;28;20204;-88
2023/07/13 05:30:15;;;;;;;3.10;2.70;;;23.30;90.80;22.90;96524.00;;;;4978759;28;20202;-88
2023/07/13 05:32:42;;;;;;;3.10;2.90;;;23.30;90.70;22.80;96533.00;;;;4974978;28;20270;-88
2023/07/13 05:35:11;;;;;;;2.83;2.63;;;23.30;90.70;22.90;96525.00;;;;4973989;28;20214;-87
2023/07/13 05:37:39;;;;;;;3.30;3.00;;;23.30;90.70;22.90;96515.00;;;;4972013;28;20229;-88
2023/07/13 05:40:08;;;;;;;3.03;2.50;;;23.30;90.70;22.90;96519.00;;;;4978345;28;20205;-88
2023/07/13 05:42:35;;;;;;;4.80;2.77;;;23.30;90.70;22.90;96519.00;;;;4975798;28;20598;-87
2023/07/13 05:45:04;;;;;;;3.63;2.47;;;23.30;90.70;22.90;96516.00;;;;4977454;28;20212;-87
2023/07/13 05:47:32;;;;;;;3.30;2.60;;;23.30;90.60;22.90;96518.00;;;;4990103;28;20297;-89
2023/07/13 05:49:59;;;;;;;2.90;2.70;;;23.30;90.60;22.90;96519.00;;;;4974759;28;20563;-87
2023/07/13 05:52:27;;;;;;;3.57;2.40;;;23.30;90.70;22.90;96529.00;;;;4962490;28;20697;-88
2023/07/13 05:54:55;;;;;;;3.00;2.57;;;23.30;90.60;22.90;96524.00;;;;4975660;28;20199;-88
2023/07/13 05:57:22;;;;;;;2.53;2.33;;;23.30;90.90;22.90;96528.00;;;;4966663;28;20219;-89
2023/07/13 05:59:49;;;;;;;2.70;2.50;;;23.30;90.70;22.90;96535.00;;;;4968430;28;20298;-88
2023/07/13 06:02:17;;;;;;;2.47;2.20;;;23.30;90.20;22.90;96531.00;;;;4971667;28;20220;-89
2023/07/13 06:04:44;;;;;;;2.77;2.57;;;23.30;90.20;22.90;96536.00;;;;4969214;28;20203;-89
2023/07/13 06:07:11;;;;;;;2.80;2.20;;;23.30;90.20;22.90;96545.00;;;;4974747;28;21468;-89
2023/07/13 06:09:40;;;;;;;3.47;2.23;;;23.30;90.20;22.80;96551.00;;;;4969650;28;20216;-89
2023/07/13 06:12:09;;;;;;;3.77;2.30;;;23.30;90.20;22.80;96549.00;;;;4974364;28;20759;-89
2023/07/13 06:14:36;;;;;;;3.37;2.60;;;23.30;90.30;22.90;96555.00;;;;4981119;28;20657;-87
2023/07/13 06:17:03;;;;;;;5.20;2.50;;;23.30;90.40;22.90;96546.00;;;;4969845;28;20653;-89
2023/07/13 06:19:31;;;;;;;2.30;2.10;;;23.30;90.50;22.90;96548.00;;;;4979114;28;20664;-86
2023/07/13 06:21:59;;;;;;;4.00;2.50;;;23.30;90.60;22.90;96539.00;;;;4973400;28;20228;-89
2023/07/13 06:24:27;;;;;;;2.87;2.50;;;23.40;90.50;22.90;96547.00;;;;4970287;28;20214;-89
2023/07/13 06:26:56;;;;;;;2.37;1.77;;;23.40;90.50;22.90;96548.00;;;;4960845;28;20232;-90
2023/07/13 06:29:23;;;;;;;1.90;1.80;;;23.40;90.20;22.90;96549.00;;;;4984754;28;20213;-89
2023/07/13 06:31:50;;;;;;;2.23;1.70;;;23.40;90.00;22.90;96560.00;;;;4982110;28;20212;-89
2023/07/13 06:34:17;;;;;;;2.00;1.90;;;23.30;89.40;22.90;96559.00;;;;4973292;28;20233;-89
2023/07/13 06:36:46;;;;;;;2.90;1.97;;;23.30;89.50;22.90;96557.00;;;;4971224;28;20222;-89
2023/07/13 06:39:13;;;;;;;2.50;2.30;;;23.30;89.50;22.90;96558.00;;;;4984512;28;20218;-89
2023/07/13 06:41:40;;;;;;;2.20;1.80;;;23.30;89.70;22.90;96561.00;;;;4976521;28;20239;-91
2023/07/13 06:44:09;;;;;;;3.17;1.67;;;23.30;89.30;22.80;96564.00;;;;4970374;28;20294;-90
2023/07/13 06:46:36;;;;;;;2.77;1.67;;;23.30;88.50;22.80;96560.00;;;;4969791;28;20223;-89
2023/07/13 06:49:04;;;;;;;1.90;1.63;;;23.30;88.50;22.80;96562.00;;;;4946878;28;20192;-88
2023/07/13 06:51:31;;;;;;;3.13;2.00;;;23.30;88.60;22.80;96567.00;;;;4970812;28;20750;-89
2023/07/13 06:53:59;;;;;;;2.33;1.50;;;23.30;87.90;22.80;96569.00;;;;4974483;28;20196;-89
2023/07/13 06:56:26;;;;;;;3.33;1.37;;;23.20;87.30;22.80;96569.00;;;;4976357;28;20227;-89
2023/07/13 06:58:53;;;;;;;1.90;1.53;;;23.20;87.20;22.80;96582.00;;;;4971451;28;20197;-89
2023/07/13 07:01:22;;;;;;;3.43;1.67;;;23.20;87.10;22.80;96584.00;;;;4980710;28;20285;-89
2023/07/13 07:03:49;;;;;;;2.27;1.57;;;23.20;86.70;22.80;96587.00;;;;4973250;28;20192;-90
2023/07/13 07:06:23;;;;;;;1.57;1.47;;;23.20;86.40;22.70;96587.00;;;;4968995;28;20219;-92
2023/07/13 07:08:51;;;;;;;1.70;1.30;;;23.20;85.80;22.70;96592.00;;;;4959564;28;20211;-90
2023/07/13 07:11:22;;;;;;;2.43;1.20;;;23.20;85.70;22.70;96587.00;;;;4967262;28;20206;-90
2023/07/13 07:13:50;;;;;;;1.90;1.67;;;23.20;85.80;22.70;96581.00;;;;4968767;28;20557;-91
2023/07/13 07:16:18;;;;;;;4.30;1.40;;;23.20;86.30;22.70;96581.00;;;;4967094;28;20714;-91
2023/07/13 07:18:48;;;;;;;3.20;1.57;;;23.20;86.10;22.80;96605.00;;;;4966068;28;20214;-91
2023/07/13 07:21:15;;;;;;;3.20;1.60;;;23.20;85.60;22.80;96602.00;;;;4973207;28;20577;-91
2023/07/13 07:23:43;;;;;;;2.43;1.20;;;23.20;85.10;22.80;96608.00;;;;4975680;28;20219;-90
2023/07/13 07:26:11;;;;;;;1.93;1.60;;;23.20;84.70;22.80;96601.00;;;;4979945;28;20219;-91
2023/07/13 07:28:39;;;;;;;2.50;1.30;;;23.20;84.40;22.80;96603.00;;;;4976302;28;20206;-91
2023/07/13 07:31:06;;;;;;;2.63;1.43;;;23.20;83.80;22.70;96605.00;;;;4977546;28;20218;-91
2023/07/13 07:33:34;;;;;;;2.27;1.43;;;23.20;83.40;22.70;96604.00;;;;4979395;28;20203;-91
2023/07/13 07:36:03;;;;;;;2.37;1.23;;;23.20;83.50;22.70;96603.00;;;;4977559;28;20717;-91
2023/07/13 07:38:30;;;;;;;1.60;1.50;;;23.20;83.20;22.70;96600.00;;;;4978854;28;20300;-91
2023/07/13 07:40:58;;;;;;;3.90;1.50;;;23.20;83.60;22.70;96596.00;;;;4976910;28;20204;-91
2023/07/13 07:43:25;;;;;;;1.30;1.20;;;23.10;83.80;22.70;96606.00;;;;4978359;28;20228;-92
2023/07/13 07:45:52;;;;;;;1.93;1.30;;;23.10;83.70;22.60;96609.00;;;;4978538;28;20578;-91
2023/07/13 07:48:30;;;;;;;2.10;1.30;;;23.10;84.30;22.60;96601.00;;;;4978391;28;20206;-91
2023/07/13 07:50:57;;;;;;;4.13;1.83;;;23.10;82.80;22.60;96614.00;;;;4977909;28;20229;-91
2023/07/13 07:53:26;;;;;;;2.50;1.30;;;23.10;83.30;22.60;96608.00;;;;4978705;28;20200;-91
2023/07/13 07:55:53;;;;;;;3.70;1.20;;;23.10;82.80;22.60;96610.00;;;;4979869;28;20223;-90
2023/07/13 07:58:20;;;;;;;1.47;1.17;;;23.10;83.40;22.60;96614.00;;;;4979697;28;20207;-92
2023/07/13 08:00:48;;;;;;;2.03;1.60;;;23.10;82.70;22.50;96631.00;;;;4974885;28;20214;-90
2023/07/13 08:03:15;;;;;;;1.57;1.30;;;23.00;83.10;22.50;96628.00;;;;4964064;28;20234;-90
2023/07/13 08:05:42;;;;;;;2.17;1.33;;;23.00;83.30;22.50;96627.00;;;;4976921;28;20320;-91
2023/07/13 08:08:10;;;;;;;2.17;1.47;;;23.00;83.20;22.60;96629.00;;;;4944167;28;20199;-91
2023/07/13 08:10:39;;;;;;;1.37;1.20;;;23.00;83.60;22.60;96618.00;;;;4983554;28;20297;-90
2023/07/13 08:13:06;;;;;;;1.57;1.47;;;23.00;83.80;22.60;96636.00;;;;4968002;28;20215;-92
2023/07/13 08:15:33;;;;;;;1.87;1.30;;;23.00;84.20;22.60;96631.00;;;;4987202;28;20292;-91
2023/07/13 08:18:01;;;;;;;1.50;1.40;;;23.10;83.40;22.70;96639.00;;;;4979148;28;20281;-90
2023/07/13 08:20:29;;;;;;;3.27;1.70;;;23.10;83.00;22.70;96642.00;;;;4979211;28;20211;-90
2023/07/13 08:22:56;;;;;;;2.57;1.20;;;23.10;82.50;22.70;96629.00;;;;4979557;28;20657;-91
2023/07/13 08:25:23;;;;;;;2.13;1.40;;;23.10;82.50;22.70;96651.00;;;;4979521;28;20295;-92
2023/07/13 08:27:53;;;;;;;1.30;1.20;;;23.10;82.20;22.70;96644.00;;;;4961784;28;20206;-91
2023/07/13 08:30:20;;;;;;;1.27;1.00;;;23.10;81.10;22.80;96647.00;;;;4979624;28;20226;-90
2023/07/13 08:32:48;;;;;;;3.80;1.50;;;23.20;81.20;22.70;96648.00;;;;4976939;28;20286;-92
2023/07/13 08:35:16;;;;;;;3.53;1.53;;;23.20;80.60;22.70;96654.00;;;;4976471;28;20293;-91
2023/07/13 08:37:44;;;;;;;1.17;1.07;;;23.20;79.80;22.70;96667.00;;;;4975172;28;20208;-91
2023/07/13 08:40:12;;;;;;;2.20;1.33;;;23.20;80.20;22.60;96661.00;;;;4981560;28;20226;-90
2023/07/13 08:42:46;;;;;;;1.30;1.20;;;23.10;79.80;22.60;96671.00;;;;4986235;28;20226;-90
2023/07/13 08:45:22;;;;;;;3.33;1.13;;;23.10;80.00;22.60;96670.00;;;;4985422;28;20376;-89
2023/07/13 08:47:56;;;;;;;1.73;1.37;;;23.10;79.50;22.60;96670.00;;;;4990638;28;20562;-91
2023/07/13 08:50:32;;;;;;;1.00;1.00;;;23.10;79.90;22.50;96667.00;;;;4970778;28;20282;-91
2023/07/13 08:53:01;;;;;;;1.30;1.20;;;23.00;80.20;22.50;96680.00;;;;4970519;28;20207;-90
2023/07/13 08:55:36;;;;;;;1.13;0.80;;;23.00;81.00;22.50;96674.00;;;;4974346;28;20207;-90
2023/07/13 08:58:11;;;;;;;1.97;0.80;;;23.00;80.00;22.50;96680.00;;;;4967419;28;20282;-91
2023/07/13 09:00:52;;;;;;;2.30;1.10;;;23.00;78.70;22.50;96684.00;;;;4973475;28;20208;-90
2023/07/13 09:03:25;;;;;;;1.77;1.00;;;23.00;77.00;22.40;96683.00;;;;4981760;28;20604;-90
2023/07/13 09:06:00;;;;;;;1.23;1.13;;;22.90;76.60;22.40;96683.00;;;;4970150;28;20243;-90
2023/07/13 09:08:46;;;;;;;1.50;0.97;;;22.90;77.60;22.30;96682.00;;;;4968657;28;20204;-90
2023/07/13 09:11:33;;;;;;;0.90;0.90;;;22.90;75.40;22.30;96676.00;;;;4972663;28;20207;-90
2023/07/13 09:14:26;;;;;;;1.50;0.90;;;22.90;77.00;22.20;96677.00;;;;4970552;28;20200;-90
2023/07/13 09:16:56;;;;;;;1.43;1.30;;;22.80;77.20;22.20;96681.00;;;;4981375;28;20222;-89
2023/07/13 09:19:32;;;;;;;1.60;1.07;;;22.80;78.50;22.20;96683.00;;;;4974376;28;20212;-90
2023/07/13 09:22:05;;;;;;;2.10;1.53;;;22.80;79.30;22.20;96679.00;;;;4977776;28;20194;-89
2023/07/13 09:24:39;;;;;;;1.93;1.27;;;22.70;80.00;22.20;96685.00;;;;4978812;28;20205;-89
2023/07/13 09:27:18;;;;;;;1.57;1.33;;;22.80;79.40;22.20;96675.00;;;;4968695;28;20231;-89
2023/07/13 09:29:53;;;;;;;1.30;1.20;;;22.70;78.50;22.20;96681.00;;;;4982571;28;20210;-90
2023/07/13 09:32:26;;;;;;;1.80;1.27;;;22.80;79.00;22.30;96686.00;;;;4979898;28;20205;-90
2023/07/13 09:34:55;;;;;;;2.60;1.43;;;22.80;79.40;22.40;96685.00;;;;4982942;28;20649;-89
2023/07/13 09:37:31;;;;;;;1.30;1.20;;;22.80;80.20;22.40;96683.00;;;;4980252;28;20223;-89
2023/07/13 09:40:04;;;;;;;1.30;1.20;;;22.80;80.70;22.50;96681.00;;;;4981454;28;20547;-88
2023/07/13 09:42:35;;;;;;;1.53;1.33;;;22.90;81.30;22.60;96680.00;;;;4977193;28;20223;-89
2023/07/13 09:45:05;;;;;;;1.30;1.20;;;23.00;81.40;22.60;96685.00;;;;4980925;28;20208;-89
2023/07/13 09:47:41;;;;;;;1.83;1.03;;;23.00;81.70;22.70;96691.00;;;;4977480;28;20229;-89
2023/07/13 09:50:18;;;;;;;2.13;1.10;;;23.10;81.00;22.90;96687.00;;;;4973851;28;20215;-89
2023/07/13 09:52:50;;;;;;;3.60;1.10;;;23.20;82.00;23.00;96686.00;;;;4976304;28;20675;-88
2023/07/13 09:55:32;;;;;;;1.57;1.27;;;23.30;82.30;23.20;96689.00;;;;4973580;28;20627;-89
2023/07/13 09:58:05;;;;;;;1.40;1.30;;;23.50;83.00;23.30;96693.00;;;;4972028;28;20252;-88
2023/07/13 10:00:33;;;;;;;1.63;1.30;;;23.70;83.80;23.50;96693.00;;;;4971055;28;20204;-88
2023/07/13 10:03:06;;;;;;;1.53;1.10;;;23.80;82.10;23.60;96697.00;;;;4973667;28;20222;-88
2023/07/13 10:05:42;;;;;;;2.93;1.00;;;24.00;79.70;23.70;96695.00;;;;4972453;28;20229;-88
2023/07/13 10:08:30;;;;;;;1.27;1.17;;;24.10;77.90;23.70;96693.00;;;;4970913;28;20323;-88
2023/07/13 10:11:02;;;;;;;1.30;0.97;;;24.20;78.50;23.80;96697.00;;;;4972700;28;20295;-87
2023/07/13 10:13:40;;;;;;;1.87;1.20;;;24.30;79.00;23.90;96686.00;;;;4973575;28;20755;-87
2023/07/13 10:16:10;;;;;;;1.27;1.10;;;24.30;77.80;24.00;96686.00;;;;4965641;28;20227;-87
2023/07/13 10:18:46;;;;;;;1.10;0.97;;;24.40;78.60;24.10;96687.00;;;;4973376;28;20210;-87
2023/07/13 10:21:18;;;;;;;2.20;0.90;;;24.50;76.90;24.20;96696.00;;;;4970009;28;20199;-87
2023/07/13 10:23:51;;;;;;;2.40;1.03;;;24.60;77.60;24.30;96691.00;;;;4973492;28;20827;-86
2023/07/13 10:26:26;;;;;;;1.23;0.93;;;24.70;77.80;24.50;96690.00;;;;4969132;28;20223;-86
2023/07/13 10:29:00;;;;;;;1.77;1.10;;;24.90;79.10;24.70;96686.00;;;;4972255;28;20205;-86
2023/07/13 10:31:27;;;;;;;1.13;0.90;;;25.00;78.50;24.80;96698.00;;;;4973073;28;20211;-87
2023/07/13 10:33:56;;;;;;;2.53;1.07;;;25.20;78.40;25.00;96691.00;;;;4972452;28;20231;-87
2023/07/13 10:36:39;;;;;;;1.10;1.10;;;25.40;77.40;25.10;96699.00;;;;4973160;28;20219;-86
2023/07/13 10:39:07;;;;;;;1.63;1.00;;;25.50;73.80;25.20;96699.00;;;;4981294;28;20301;-86
2023/07/13 10:41:41;;;;;;;1.20;1.00;;;25.60;75.20;25.20;96696.00;;;;4973784;28;20713;-86
2023/07/13 10:44:25;;;;;;;2.47;1.07;;;25.70;73.80;25.30;96701.00;;;;4971579;28;20223;-87
2023/07/13 10:46:56;;;;;;;1.70;0.90;;;25.70;72.30;25.40;96696.00;;;;4972242;28;20281;-86
2023/07/13 10:49:27;;;;;;;1.77;1.13;;;25.80;74.30;25.40;96683.00;;;;4972536;28;20209;-86
2023/07/13 10:51:55;;;;;;;1.10;1.00;;;25.80;72.20;25.40;96689.00;;;;4971199;28;20287;-86
2023/07/13 10:54:28;;;;;;;1.90;1.10;;;25.80;73.60;25.40;96700.00;;;;4971332;28;20199;-86
2023/07/13 10:57:18;;;;;;;2.73;0.90;;;25.80;74.10;25.50;96691.00;;;;4970125;28;20227;-86
2023/07/13 10:59:52;;;;;;;1.73;1.00;;;25.90;71.20;25.50;96690.00;;;;4957067;28;20200;-86
2023/07/13 11:02:28;;;;;;;0.93;0.93;;;25.90;72.40;25.60;96697.00;;;;4970590;28;20282;-85
2023/07/13 11:04:58;;;;;;;1.53;1.33;;;25.90;71.10;25.60;96695.00;;;;4968838;28;20218;-85
2023/07/13 11:07:29;;;;;;;1.00;0.90;;;25.90;72.20;25.60;96696.00;;;;4973642;28;20226;-86